Time;durP1;ratioP1;P1;durP2;ratioP2;P2;SDS_P1;SDS_P2;PMS_P1;PMS_P2;Temp;Humidity;BMP_temperature;BMP_pressure;BME280_temperature;BME280_humidity;BME280_pressure;Samples;Min_cycle;Max_cycle;Signal;HPM_P1;HPM_P2
2023/01/24 00:03:18;;;;;;;9.23;6.20;;;5.80;57.80;;;3.77;62.51;103507.44;12260214;19;20014;-87
2023/01/24 00:07:20;;;;;;;16.08;6.85;;;5.60;57.70;;;4.11;62.39;103577.00;12262109;19;20085;-86
2023/01/24 00:11:22;;;;;;;11.43;6.38;;;5.70;57.80;;;3.72;62.48;103503.03;12262042;19;20009;-86
2023/01/24 00:15:26;;;;;;;9.93;5.72;;;5.90;58.10;;;3.86;62.62;103526.53;12256551;19;20018;-87
2023/01/24 00:19:28;;;;;;;11.20;6.72;;;5.70;58.10;;;4.02;62.63;103557.00;12260423;19;20373;-86
2023/01/24 00:23:30;;;;;;;11.95;7.05;;;5.70;58.10;;;3.94;62.38;103531.03;12258174;19;20400;-86
2023/01/24 00:27:34;;;;;;;10.73;6.60;;;6.00;58.00;;;3.93;62.31;103528.41;12260081;19;20013;-86
2023/01/24 00:31:36;;;;;;;13.32;7.15;;;6.00;58.10;;;3.79;62.37;103499.72;12258588;19;20014;-86
2023/01/24 00:35:37;;;;;;;11.40;6.35;;;5.70;57.80;;;3.89;62.32;103524.00;12254321;19;20497;-86
2023/01/24 00:39:39;;;;;;;10.60;6.82;;;6.00;58.00;;;3.65;62.34;103486.56;12260764;19;20472;-86
2023/01/24 00:43:41;;;;;;;12.95;7.03;;;5.70;57.80;;;3.85;62.39;103525.69;12256442;19;20006;-86
2023/01/24 00:47:43;;;;;;;14.88;7.75;;;5.70;57.60;;;4.10;62.48;103593.34;12259679;19;20014;-86
2023/01/24 00:51:45;;;;;;;12.98;6.63;;;5.90;57.70;;;3.80;62.47;103529.03;12256867;19;20057;-86
2023/01/24 00:55:48;;;;;;;10.73;6.50;;;5.70;57.70;;;3.71;62.22;103520.25;12252508;19;20015;-86
2023/01/24 00:59:51;;;;;;;11.80;6.50;;;5.60;57.80;;;3.83;62.17;103536.81;12257118;19;20017;-86
2023/01/24 01:03:57;;;;;;;14.98;6.55;;;5.60;57.70;;;4.01;62.24;103573.34;12251489;19;20024;-86
2023/01/24 01:07:59;;;;;;;13.27;7.57;;;5.60;57.60;;;3.85;62.20;103545.50;12257450;19;20528;-87
2023/01/24 01:12:01;;;;;;;13.35;6.47;;;5.60;57.70;;;3.66;62.37;103515.84;12259229;19;20465;-87
2023/01/24 01:16:06;;;;;;;11.18;5.10;;;5.70;57.80;;;3.90;62.28;103555.06;12255455;19;20018;-87
2023/01/24 01:20:14;;;;;;;13.15;5.85;;;5.60;57.80;;;3.69;62.38;103508.16;12259788;19;20031;-87
2023/01/24 01:24:16;;;;;;;12.18;6.18;;;5.70;57.80;;;3.82;62.42;103525.63;12253041;19;20085;-86
2023/01/24 01:28:18;;;;;;;12.18;7.00;;;5.60;57.80;;;3.73;62.41;103520.28;12255734;19;20396;-86
2023/01/24 01:32:20;;;;;;;13.35;6.97;;;5.70;57.80;;;3.76;62.33;103530.69;12259086;19;20026;-86
2023/01/24 01:36:22;;;;;;;13.73;6.53;;;5.60;57.80;;;3.71;62.34;103521.97;12255360;19;20484;-86
2023/01/24 01:40:27;;;;;;;14.85;6.65;;;5.60;57.90;;;3.80;62.27;103550.56;12259714;19;20322;-87
2023/01/24 01:44:47;;;;;;;12.13;6.60;;;5.70;57.90;;;4.02;62.31;103590.59;12253494;19;20011;-87
2023/01/24 01:48:58;;;;;;;12.48;6.95;;;5.70;57.80;;;3.70;62.37;103534.03;12255198;19;20038;-87
2023/01/24 01:53:00;;;;;;;19.65;7.32;;;5.70;57.70;;;3.71;62.32;103532.31;12254709;19;20086;-87
2023/01/24 01:57:22;;;;;;;18.77;7.43;;;5.90;57.80;;;3.43;62.24;103490.47;12255684;19;20013;-87
2023/01/24 02:01:26;;;;;;;14.32;7.57;;;5.60;57.60;;;3.59;62.42;103524.31;12256250;19;20018;-87
2023/01/24 02:05:31;;;;;;;12.20;6.82;;;5.60;57.70;;;3.68;62.20;103548.63;12252693;19;20030;-87
2023/01/24 02:09:42;;;;;;;17.73;7.90;;;5.50;57.70;;;3.60;62.28;103539.00;12255013;19;20040;-86
2023/01/24 02:13:50;;;;;;;15.40;7.88;;;5.50;57.70;;;3.50;62.15;103528.47;12253623;19;20032;-87
2023/01/24 02:18:10;;;;;;;12.90;7.68;;;5.30;57.60;;;3.63;62.33;103544.22;12252557;19;20056;-87
2023/01/24 02:23:03;;;;;;;14.48;7.80;;;5.70;57.70;;;3.76;62.23;103585.81;12253912;19;20457;-87
2023/01/24 02:27:07;;;;;;;16.65;8.25;;;5.50;57.60;;;4.06;62.14;103630.34;12254122;19;20027;-86
2023/01/24 02:31:16;;;;;;;18.20;7.30;;;5.50;57.70;;;3.62;62.28;103547.63;12256581;19;20018;-87
2023/01/24 02:35:37;;;;;;;15.88;6.88;;;5.40;57.70;;;3.44;62.09;103533.53;12252883;19;20025;-86
2023/01/24 02:40:04;;;;;;;12.93;7.68;;;5.50;58.20;;;3.60;62.13;103560.53;12256702;19;20046;-87
2023/01/24 02:44:15;;;;;;;14.23;7.68;;;5.40;57.60;;;3.40;62.31;103531.69;12251990;19;20353;-87
2023/01/24 02:48:17;;;;;;;18.50;8.80;;;5.40;57.60;;;3.52;62.07;103552.63;12254827;19;20073;-87
2023/01/24 03:01:02;;;;;;;13.15;7.28;;;5.40;57.70;;;3.37;62.33;103523.91;12252664;19;20041;-87
2023/01/24 03:05:05;;;;;;;14.35;7.40;;;5.40;57.80;;;3.53;62.35;103545.75;12249558;19;20375;-86
2023/01/24 03:09:17;;;;;;;14.90;8.57;;;5.40;57.80;;;3.90;62.12;103616.25;12252225;19;20030;-87
2023/01/24 03:35:13;;;;;;;15.27;8.15;;;5.30;57.60;;;3.69;62.46;103596.88;12260074;19;20079;-87
2023/01/24 03:43:38;;;;;;;13.73;7.25;;;5.30;57.70;;;3.21;62.25;103516.69;12261692;19;20018;-87
2023/01/24 03:47:40;;;;;;;16.45;8.70;;;5.20;57.80;;;3.38;62.19;103541.16;12263132;19;20025;-87
2023/01/24 03:56:04;;;;;;;17.90;8.60;;;5.30;57.70;;;3.40;62.20;103548.91;12257859;19;20010;-86
2023/01/24 04:00:15;;;;;;;17.05;7.75;;;5.20;57.70;;;3.64;62.25;103577.81;12263167;19;20018;-86
2023/01/24 04:05:12;;;;;;;14.18;7.10;;;5.30;57.80;;;3.43;62.30;103542.13;12257412;19;20025;-87
2023/01/24 04:08:51;;;;;;;17.48;8.27;;;5.20;57.60;;;3.39;61.98;103535.13;12261170;19;20007;-87
2023/01/24 04:12:57;;;;;;;16.70;7.55;;;5.20;57.60;;;3.64;62.08;103576.94;12261355;19;20027;-86
2023/01/24 04:17:00;;;;;;;18.33;8.43;;;5.20;57.50;;;3.30;62.13;103534.97;12259151;19;20021;-86
2023/01/24 04:21:08;;;;;;;17.05;8.43;;;5.20;57.50;;;3.38;62.10;103533.41;12259704;19;20081;-86
2023/01/24 04:25:11;;;;;;;20.38;8.90;;;5.30;57.60;;;3.35;62.15;103542.78;12256159;19;20349;-87
2023/01/24 04:29:16;;;;;;;21.23;9.25;;;5.20;57.60;;;3.38;62.13;103537.72;12256893;19;20042;-86
2023/01/24 04:33:19;;;;;;;17.77;8.07;;;5.20;57.50;;;3.60;62.21;103575.16;12254325;19;20155;-86
2023/01/24 04:37:21;;;;;;;19.55;8.20;;;5.30;57.60;;;3.82;62.17;103603.16;12257059;19;20023;-86
2023/01/24 04:41:23;;;;;;;19.15;8.70;;;5.20;57.50;;;3.35;62.22;103528.19;12257350;19;20476;-86
2023/01/24 04:45:31;;;;;;;13.25;7.40;;;5.20;57.50;;;3.39;62.22;103539.44;12258377;19;20171;-86
2023/01/24 04:49:34;;;;;;;17.55;7.82;;;5.40;57.70;;;3.57;62.23;103565.63;12258558;19;20467;-86
2023/01/24 04:53:39;;;;;;;17.73;8.98;;;5.20;57.60;;;3.26;62.02;103517.66;12257421;19;20190;-86
2023/01/24 04:57:42;;;;;;;18.70;9.00;;;5.20;57.40;;;3.42;62.17;103535.19;12255562;19;20503;-86
2023/01/24 05:01:54;;;;;;;12.50;7.43;;;5.20;57.50;;;3.60;62.11;103568.28;12256928;19;20018;-86
2023/01/24 05:06:13;;;;;;;15.93;7.47;;;5.20;57.50;;;3.77;62.05;103597.91;12253139;19;20377;-86
2023/01/24 05:10:21;;;;;;;16.40;7.38;;;5.20;57.60;;;3.14;62.11;103495.03;12256779;19;20034;-86
2023/01/24 05:14:23;;;;;;;17.60;8.48;;;5.20;57.50;;;3.69;62.23;103591.69;12249560;19;20098;-86
2023/01/24 05:18:25;;;;;;;14.88;8.00;;;5.20;57.40;;;3.57;62.15;103581.16;12256307;19;20561;-86
2023/01/24 05:22:33;;;;;;;19.65;9.48;;;5.10;57.50;;;3.12;62.18;103514.78;12255581;19;20022;-86
2023/01/24 05:26:39;;;;;;;16.08;7.15;;;5.10;57.50;;;3.37;62.11;103554.88;12252139;19;20022;-86
2023/01/24 05:30:42;;;;;;;14.10;7.50;;;5.00;57.50;;;3.40;62.20;103557.53;12255351;19;20430;-86
2023/01/24 05:35:09;;;;;;;20.40;7.68;;;5.10;57.50;;;3.73;62.02;103613.34;12250346;19;20018;-87
2023/01/24 05:39:10;;;;;;;16.83;9.38;;;5.20;57.50;;;3.27;61.96;103540.06;12252202;19;20018;-87
2023/01/24 05:43:17;;;;;;;15.23;7.35;;;5.10;57.30;;;2.98;62.04;103504.16;12248100;19;20100;-87
2023/01/24 05:47:52;;;;;;;18.00;8.45;;;5.10;57.40;;;3.71;62.27;103615.00;12250596;19;20357;-87
2023/01/24 05:52:02;;;;;;;13.10;7.50;;;5.30;57.50;;;3.27;62.26;103545.22;12250054;19;20014;-87
2023/01/24 05:56:19;;;;;;;13.85;7.55;;;5.40;57.50;;;3.13;62.07;103520.81;12247071;19;20029;-87
2023/01/24 06:00:30;;;;;;;14.63;7.40;;;5.20;57.50;;;3.68;61.94;103622.69;12250400;19;20037;-87
2023/01/24 06:05:54;;;;;;;;;;;;;;;;;;;;;
2023/01/24 06:10:04;;;;;;;16.75;7.35;;;5.30;57.50;;;3.16;62.06;103547.59;12243856;19;20460;-87
2023/01/24 06:14:22;;;;;;;15.40;7.70;;;5.10;57.40;;;3.20;62.02;103548.50;12247734;19;20021;-90
2023/01/24 06:18:24;;;;;;;13.75;6.90;;;5.40;57.60;;;3.24;62.24;103552.88;12251028;19;20500;-90
2023/01/24 06:22:50;;;;;;;18.15;8.43;;;5.10;57.40;;;3.17;62.04;103551.91;12248887;19;20014;-90
2023/01/24 06:26:53;;;;;;;14.85;8.55;;;5.10;57.30;;;3.23;62.01;103564.94;12248221;19;20099;-90
2023/01/24 06:31:33;;;;;;;19.17;8.43;;;5.10;57.40;;;3.21;61.93;103570.91;12251343;19;20027;-90
2023/01/24 06:36:33;;;;;;;14.75;7.20;;;5.20;57.50;;;3.68;61.98;103651.13;12248863;19;20010;-90
2023/01/24 06:40:35;;;;;;;14.40;7.60;;;5.10;57.40;;;3.48;62.13;103625.75;12245320;19;20010;-89
2023/01/24 06:44:37;;;;;;;15.43;7.40;;;5.10;57.50;;;3.42;62.04;103615.25;12244208;19;20066;-89
2023/01/24 06:48:38;;;;;;;18.83;8.80;;;5.10;57.40;;;3.56;62.06;103646.56;12251508;19;20014;-88
2023/01/24 06:52:49;;;;;;;16.15;7.53;;;5.10;57.30;;;3.21;62.13;103588.97;12247524;19;20418;-89
2023/01/24 06:56:51;;;;;;;17.80;7.10;;;5.10;57.40;;;3.50;62.13;103647.28;12244341;19;20472;-88
2023/01/24 07:00:53;;;;;;;17.00;8.55;;;5.10;57.40;;;3.54;62.00;103651.72;12248802;19;20130;-91
2023/01/24 07:04:55;;;;;;;20.92;9.43;;;5.30;57.40;;;3.31;62.16;103634.81;12244694;19;20476;-90
2023/01/24 07:08:59;;;;;;;15.95;8.63;;;5.10;57.30;;;3.12;62.02;103596.53;12249908;19;20014;-89
2023/01/24 07:18:05;;;;;;;16.77;8.65;;;5.10;57.30;;;3.18;61.84;103625.94;12242255;19;20553;-89
2023/01/24 07:22:12;;;;;;;17.08;8.63;;;5.20;57.30;;;3.06;61.89;103608.47;12243395;19;20483;-89
2023/01/24 07:26:32;;;;;;;21.20;9.43;;;5.10;57.30;;;3.59;62.03;103707.75;12244608;19;20084;-90
2023/01/24 07:30:34;;;;;;;14.75;8.80;;;5.10;57.10;;;3.43;62.02;103675.53;12245743;19;20024;-89
2023/01/24 07:34:36;;;;;;;20.10;9.98;;;5.20;57.40;;;3.47;62.00;103690.28;12245004;19;20078;-90
2023/01/24 07:38:38;;;;;;;20.70;9.00;;;5.30;57.40;;;3.31;62.08;103661.53;12246280;19;20415;-90
2023/01/24 07:42:40;;;;;;;20.02;8.30;;;5.40;57.40;;;3.26;62.19;103657.09;12246126;19;20017;-91
2023/01/24 07:46:43;;;;;;;22.38;10.23;;;5.10;57.40;;;3.40;62.14;103680.63;12261646;19;20018;-90
2023/01/24 07:50:44;;;;;;;22.90;9.20;;;5.20;57.40;;;3.58;62.11;103700.84;12271521;19;20017;-90
2023/01/24 07:54:46;;;;;;;19.60;8.95;;;5.10;57.40;;;3.68;61.97;103721.75;12267634;19;20035;-91
2023/01/24 07:58:48;;;;;;;19.30;8.70;;;5.10;57.40;;;3.39;62.09;103664.28;12271303;19;20002;-91
2023/01/24 08:02:50;;;;;;;19.02;9.25;;;5.20;57.50;;;3.29;62.12;103646.81;12258533;19;20070;-89
2023/01/24 08:11:15;;;;;;;22.08;10.73;;;5.20;57.30;;;3.22;61.99;103639.81;12255121;19;20484;-91
2023/01/24 08:15:17;;;;;;;21.63;10.80;;;5.20;57.30;;;3.29;62.21;103654.56;12251540;19;20013;-90
2023/01/24 08:19:20;;;;;;;20.23;10.48;;;5.10;57.20;;;3.11;61.92;103626.66;12255597;19;20074;-89
2023/01/24 08:23:22;;;;;;;21.70;10.82;;;5.10;57.30;;;3.19;62.01;103643.19;12252338;19;20011;-90
2023/01/24 08:27:24;;;;;;;25.70;10.10;;;5.10;57.40;;;3.13;62.17;103643.03;12253651;19;20018;-91
2023/01/24 08:31:26;;;;;;;21.67;10.38;;;5.10;57.40;;;3.08;62.02;103637.78;12252710;19;20017;-91
2023/01/24 08:35:29;;;;;;;18.73;8.98;;;5.10;57.40;;;3.24;62.11;103658.75;12251929;19;20090;-90
2023/01/24 08:39:31;;;;;;;20.70;10.75;;;5.10;57.40;;;3.46;61.97;103693.72;12253473;19;20010;-90
2023/01/24 08:43:33;;;;;;;22.77;11.35;;;5.30;57.50;;;3.26;62.10;103654.50;12244738;19;20017;-91
2023/01/24 08:47:34;;;;;;;26.17;12.93;;;5.10;57.40;;;3.63;62.03;103719.91;12249926;19;20014;-91
2023/01/24 08:51:36;;;;;;;27.67;12.40;;;5.20;57.20;;;3.19;61.83;103645.75;12252122;19;20015;-90
2023/01/24 08:55:38;;;;;;;23.80;11.07;;;5.10;57.20;;;3.36;62.23;103682.28;12248486;19;20035;-91
2023/01/24 08:59:39;;;;;;;29.40;13.02;;;5.10;57.30;;;3.44;62.13;103692.81;12253087;19;20081;-89
2023/01/24 09:03:41;;;;;;;29.98;14.10;;;5.10;57.20;;;3.41;61.92;103703.06;12242482;19;20046;-91
2023/01/24 09:07:43;;;;;;;32.08;14.43;;;5.10;57.20;;;3.24;61.88;103663.91;12249088;19;20018;-90
2023/01/24 09:11:45;;;;;;;27.23;12.35;;;5.40;57.30;;;3.24;62.00;103664.81;12251400;19;20012;-90
2023/01/24 09:15:46;;;;;;;24.08;11.25;;;5.40;57.50;;;3.50;62.08;103703.25;12249936;19;20019;-90
2023/01/24 09:19:48;;;;;;;21.33;10.73;;;5.10;57.40;;;3.58;62.12;103721.53;12251442;19;20019;-90
2023/01/24 09:23:49;;;;;;;24.85;10.88;;;5.40;57.70;;;3.36;62.19;103673.69;12249839;19;20112;-90
2023/01/24 09:27:55;;;;;;;20.60;10.75;;;5.20;57.60;;;3.29;62.20;103660.63;12250861;19;20006;-90
2023/01/24 09:31:57;;;;;;;24.25;11.48;;;5.20;57.50;;;3.07;62.03;103622.25;12252241;19;20104;-90
2023/01/24 09:36:01;;;;;;;24.65;11.20;;;5.20;57.50;;;3.34;62.19;103673.63;12247100;19;20013;-90
2023/01/24 09:40:08;;;;;;;25.48;11.13;;;5.20;57.40;;;3.35;62.03;103662.47;12252689;19;20027;-90
2023/01/24 09:44:36;;;;;;;24.58;11.45;;;5.30;57.40;;;3.73;61.99;103734.78;12245487;19;20011;-90
2023/01/24 09:48:38;;;;;;;18.40;9.40;;;5.30;57.40;;;3.41;62.07;103669.50;12249171;19;20002;-90
2023/01/24 09:52:46;;;;;;;19.45;9.73;;;5.30;57.50;;;3.51;62.18;103684.31;12249061;19;20022;-90
2023/01/24 09:56:49;;;;;;;15.93;8.35;;;5.40;57.50;;;3.53;61.94;103677.50;12245120;19;20010;-89
2023/01/24 10:00:50;;;;;;;25.15;12.60;;;5.60;57.60;;;3.50;61.99;103659.34;12249307;19;20350;-89
2023/01/24 10:04:52;;;;;;;20.45;10.68;;;5.40;57.30;;;3.43;62.03;103650.59;12234405;19;20018;-91
2023/01/24 10:09:07;;;;;;;19.13;10.15;;;5.40;57.40;;;3.83;62.08;103703.13;12245294;19;20020;-91
2023/01/24 10:13:43;;;;;;;21.17;12.13;;;5.40;57.40;;;3.91;62.12;103711.91;12246860;19;20027;-90
2023/01/24 10:18:39;;;;;;;28.65;11.60;;;5.40;57.30;;;3.94;61.98;103711.09;12244405;19;20015;-91
2023/01/24 10:23:01;;;;;;;23.70;12.10;;;5.50;57.30;;;3.47;62.00;103625.69;12248721;19;20048;-90
2023/01/24 10:27:27;;;;;;;23.27;10.95;;;5.40;57.10;;;3.52;61.85;103645.63;12247324;19;20025;-90
2023/01/24 10:31:40;;;;;;;21.20;9.38;;;5.40;57.30;;;3.36;62.00;103594.47;12244314;19;20349;-89
2023/01/24 10:35:57;;;;;;;24.58;12.77;;;5.40;57.40;;;3.96;61.94;103697.34;12242165;19;20010;-89
2023/01/24 10:40:00;;;;;;;20.17;11.13;;;5.50;57.20;;;3.60;62.00;103632.00;12247029;19;20011;-90
2023/01/24 10:44:22;;;;;;;23.65;11.13;;;5.50;57.40;;;3.43;62.03;103611.88;12246429;19;20011;-91
2023/01/24 10:48:49;;;;;;;17.73;9.50;;;5.50;57.40;;;3.93;62.21;103680.91;12246113;19;20022;-90
2023/01/24 10:52:51;;;;;;;18.50;9.88;;;5.60;57.50;;;3.96;61.98;103673.22;12245377;19;20021;-90
2023/01/24 10:56:52;;;;;;;18.90;10.07;;;5.50;57.50;;;3.67;61.96;103620.94;12243089;19;20354;-89
2023/01/24 11:01:14;;;;;;;18.52;11.05;;;5.50;57.50;;;4.07;62.22;103688.94;12245255;19;20082;-92
2023/01/24 11:05:20;;;;;;;20.67;10.80;;;5.60;57.50;;;3.81;62.16;103642.78;12244794;19;20014;-91
2023/01/24 11:09:30;;;;;;;23.33;12.00;;;5.70;57.50;;;3.77;62.06;103628.03;12244018;19;20074;-91
2023/01/24 11:13:39;;;;;;;20.83;11.10;;;5.70;57.70;;;3.90;62.03;103637.78;12244726;19;20010;-89
2023/01/24 11:17:41;;;;;;;21.00;12.57;;;5.70;57.60;;;4.11;62.17;103675.25;12244121;19;20021;-90
2023/01/24 11:21:53;;;;;;;26.85;13.50;;;5.80;57.50;;;4.17;61.96;103677.94;12245689;19;20398;-90
2023/01/24 11:26:01;;;;;;;28.90;16.15;;;5.80;57.30;;;4.18;61.97;103682.28;12242419;19;20018;-90
2023/01/24 11:30:17;;;;;;;21.80;12.93;;;5.80;57.10;;;3.87;62.01;103621.34;12246856;19;20077;-91
2023/01/24 11:34:53;;;;;;;22.95;12.35;;;5.70;57.40;;;4.18;62.10;103674.50;12230772;19;20494;-90
2023/01/24 11:38:59;;;;;;;26.20;14.35;;;5.70;57.40;;;4.07;61.84;103648.44;12241428;19;20126;-89
2023/01/24 11:44:04;;;;;;;24.50;13.05;;;5.80;57.40;;;3.98;62.00;103636.22;12250289;19;20015;-89
2023/01/24 11:48:35;;;;;;;22.85;11.70;;;5.80;57.50;;;4.12;62.08;103654.59;12255077;19;20018;-89
2023/01/24 11:53:13;;;;;;;20.45;11.00;;;5.80;57.60;;;4.34;61.99;103671.38;12256321;19;20455;-90
2023/01/24 11:57:51;;;;;;;21.65;12.65;;;5.80;57.60;;;3.93;61.90;103591.31;12250923;19;20480;-90
2023/01/24 12:02:25;;;;;;;21.83;11.25;;;5.90;57.50;;;4.40;61.99;103668.91;12251371;19;20472;-90
2023/01/24 12:07:27;;;;;;;18.23;11.05;;;5.90;57.60;;;4.41;62.23;103657.72;12248057;19;20010;-91
2023/01/24 12:11:46;;;;;;;14.35;9.23;;;5.90;57.60;;;4.25;61.93;103619.47;12248967;19;20476;-89
2023/01/24 12:16:44;;;;;;;18.25;11.00;;;6.00;57.70;;;4.50;62.19;103653.53;12251552;19;20019;-90
2023/01/24 12:21:13;;;;;;;15.80;9.40;;;6.00;57.60;;;4.42;62.21;103624.94;12247797;19;20748;-90
2023/01/24 12:25:32;;;;;;;20.45;10.82;;;6.00;57.70;;;4.05;62.00;103569.09;12250369;19;20019;-90
2023/01/24 12:29:55;;;;;;;18.63;12.05;;;6.00;57.70;;;4.18;62.17;103577.09;12256998;19;20024;-91
2023/01/24 12:34:33;;;;;;;14.67;9.33;;;6.10;57.70;;;4.31;61.99;103588.53;12249884;19;20015;-90
2023/01/24 12:38:45;;;;;;;;;;;6.10;57.70;;;4.49;61.97;103618.19;12254883;19;20712;-89
2023/01/24 12:43:33;;;;;;;16.83;10.05;;;6.20;57.70;;;4.62;61.91;103657.22;12252901;19;19911;-90
2023/01/24 12:47:48;;;;;;;17.00;10.70;;;6.20;57.60;;;4.48;62.08;103630.22;12250051;19;20006;-89
2023/01/24 12:52:09;;;;;;;24.95;14.15;;;6.20;57.50;;;4.54;61.93;103643.28;12253416;19;20078;-90
2023/01/24 12:56:28;;;;;;;26.10;14.10;;;6.20;57.30;;;4.33;61.97;103614.44;12247883;19;20006;-90
2023/01/24 13:00:56;;;;;;;26.27;15.20;;;6.40;57.50;;;4.06;62.11;103563.09;12251463;19;20481;-90
2023/01/24 13:05:54;;;;;;;22.48;13.68;;;6.10;57.30;;;4.53;62.09;103628.56;12249022;19;20022;-90
2023/01/24 13:10:25;;;;;;;19.30;11.02;;;6.10;57.50;;;4.64;62.12;103640.00;12249796;19;20030;-90
2023/01/24 13:14:36;;;;;;;30.75;15.65;;;6.10;57.60;;;4.38;61.87;103600.75;12251232;19;20019;-89
2023/01/24 13:19:15;;;;;;;26.98;15.00;;;6.10;57.30;;;4.45;62.00;103614.63;12252449;19;20011;-91
2023/01/24 13:27:56;;;;;;;22.38;12.15;;;6.10;57.50;;;4.21;61.84;103561.66;12249502;19;20017;-90
2023/01/24 13:32:14;;;;;;;23.90;13.93;;;6.20;57.60;;;4.22;61.90;103552.19;12249131;19;20467;-91
2023/01/24 13:36:28;;;;;;;25.23;13.23;;;6.10;57.50;;;4.27;61.91;103558.31;12244706;19;20015;-91
2023/01/24 13:40:36;;;;;;;23.23;14.13;;;6.20;57.60;;;4.05;62.00;103509.63;12247688;19;20010;-91
2023/01/24 13:44:38;;;;;;;23.55;12.52;;;6.20;57.60;;;4.17;62.02;103541.75;12243403;19;20052;-91
2023/01/24 13:48:44;;;;;;;23.73;12.85;;;6.20;57.60;;;4.75;62.13;103635.00;12245538;19;20018;-91
2023/01/24 13:52:57;;;;;;;27.63;15.27;;;6.20;57.60;;;4.20;61.85;103546.97;12246432;19;20007;-91
2023/01/24 13:57:35;;;;;;;24.80;14.35;;;6.20;57.40;;;4.72;61.97;103640.09;12247164;19;20035;-91
2023/01/24 14:01:45;;;;;;;23.88;13.82;;;6.20;57.40;;;4.26;61.89;103547.91;12246687;19;20505;-91
2023/01/24 14:05:59;;;;;;;23.30;14.07;;;6.20;57.60;;;4.76;62.07;103636.75;12238747;19;20026;-90
2023/01/24 14:10:16;;;;;;;26.35;15.00;;;6.20;57.60;;;4.22;61.92;103550.47;12243241;19;20468;-90
2023/01/24 14:14:34;;;;;;;26.55;13.55;;;6.20;57.50;;;4.17;61.99;103535.72;12240616;19;20363;-90
2023/01/24 14:19:13;;;;;;;26.15;13.50;;;6.40;57.70;;;4.31;62.00;103561.81;12246560;19;20014;-90
2023/01/24 14:23:24;;;;;;;25.95;12.75;;;6.20;57.60;;;4.59;61.97;103604.50;12241931;19;20360;-91
2023/01/24 14:27:59;;;;;;;22.45;11.90;;;6.30;57.70;;;4.12;61.94;103519.25;12245538;19;20082;-90
2023/01/24 14:32:04;;;;;;;22.40;12.07;;;6.30;57.60;;;4.28;62.03;103539.34;12246452;19;20017;-91
2023/01/24 14:36:29;;;;;;;27.50;14.43;;;6.30;57.60;;;4.84;61.84;103629.09;12242473;19;20014;-91
2023/01/24 14:40:31;;;;;;;24.67;13.35;;;6.30;57.50;;;4.88;62.04;103642.09;12247863;19;20410;-90
2023/01/24 14:44:58;;;;;;;21.98;13.50;;;6.30;57.60;;;4.41;61.79;103559.41;12244761;19;20022;-91
2023/01/24 14:49:13;;;;;;;29.77;13.85;;;6.30;57.50;;;4.22;61.91;103513.38;12246404;19;20359;-90
2023/01/24 14:53:30;;;;;;;24.30;12.50;;;6.30;57.50;;;4.36;61.83;103540.34;12245245;19;20046;-91
2023/01/24 14:57:35;;;;;;;28.85;14.52;;;6.30;57.60;;;4.33;61.85;103521.31;12245353;19;20047;-90
2023/01/24 15:01:52;;;;;;;;;;;;;;;;;;;;;
2023/01/24 15:06:27;;;;;;;25.27;13.48;;;6.40;57.50;;;4.72;61.89;103596.09;12241080;19;20021;-90
2023/01/24 15:11:02;;;;;;;104.55;57.30;;;6.40;57.40;;;4.43;61.76;103552.53;12243949;19;20352;-91
2023/01/24 15:15:15;;;;;;;66.65;37.15;;;6.30;57.40;;;4.91;61.95;103611.94;12233606;19;20022;-90
2023/01/24 15:19:58;;;;;;;40.15;21.15;;;6.30;57.40;;;4.88;61.89;103610.16;12221616;19;20006;-91
2023/01/24 15:24:13;;;;;;;31.65;15.73;;;6.50;57.60;;;4.42;61.89;103527.50;12236365;19;20583;-91
2023/01/24 15:29:04;;;;;;;;;;;;;;;;;;;;;
2023/01/24 15:33:18;;;;;;;20.45;10.63;;;6.50;57.60;;;4.44;61.76;103532.72;12240909;19;20084;-91
2023/01/24 15:37:22;;;;;;;22.33;11.90;;;6.30;57.60;;;4.64;61.82;103567.53;12240675;19;20014;-91
2023/01/24 15:43:45;;;;;;;23.05;11.95;;;6.60;57.80;;;4.44;62.00;103536.16;12243037;19;20021;-90
2023/01/24 15:55:05;;;;;;;;;;;6.40;57.70;;;4.19;62.01;103490.06;12225155;19;20017;-90
2023/01/24 15:59:23;;;;;;;16.45;9.18;;;6.40;57.80;;;4.51;61.95;103541.41;12238195;19;20023;-91
2023/01/24 16:03:25;;;;;;;17.30;10.25;;;6.70;57.80;;;4.39;61.85;103511.94;12226171;19;20018;-90
2023/01/24 16:07:27;;;;;;;22.52;11.20;;;6.20;57.50;;;4.40;61.85;103498.16;12241674;19;20007;-90
2023/01/24 16:11:29;;;;;;;23.55;12.20;;;6.50;57.50;;;4.48;61.74;103512.91;12241206;19;20369;-90
2023/01/24 16:15:31;;;;;;;26.83;14.15;;;6.60;57.60;;;4.49;61.95;103506.91;12241101;19;20025;-90
2023/01/24 16:19:33;;;;;;;22.27;11.23;;;6.30;57.50;;;4.50;61.80;103517.25;12244132;19;20022;-91
2023/01/24 16:23:34;;;;;;;23.35;11.85;;;6.40;57.70;;;4.36;61.76;103485.16;12239303;19;20011;-93
2023/01/24 16:27:40;;;;;;;23.50;12.23;;;6.30;57.60;;;4.45;61.84;103495.63;12246770;19;20099;-91
2023/01/24 16:31:44;;;;;;;21.17;11.35;;;6.50;57.50;;;4.73;61.87;103556.44;12254636;19;20098;-91
2023/01/24 16:36:18;;;;;;;21.90;11.07;;;6.40;57.50;;;4.24;61.81;103472.91;12250346;19;20735;-91
2023/01/24 16:40:20;;;;;;;23.95;11.82;;;6.50;57.60;;;4.53;61.89;103501.78;12256911;19;20018;-89
2023/01/24 16:44:22;;;;;;;21.15;11.27;;;6.40;57.60;;;4.71;62.06;103532.25;12252526;19;20020;-89
2023/01/24 16:48:24;;;;;;;17.25;10.18;;;6.40;57.60;;;4.57;61.85;103526.88;12253179;19;20081;-90
2023/01/24 16:52:26;;;;;;;21.58;9.68;;;6.40;57.50;;;4.95;61.77;103593.00;12250352;19;20375;-89
2023/01/24 16:56:29;;;;;;;24.08;12.05;;;6.40;57.50;;;4.76;61.96;103555.63;12247293;19;20039;-89
2023/01/24 17:00:32;;;;;;;23.92;11.43;;;6.30;57.50;;;4.52;61.67;103523.34;12248832;19;20011;-89
2023/01/24 17:04:33;;;;;;;21.20;11.30;;;6.30;57.50;;;4.52;61.89;103513.00;12239067;19;20022;-89
2023/01/24 17:08:36;;;;;;;19.00;11.52;;;6.40;57.60;;;4.90;61.78;103579.13;12251643;19;20026;-89
2023/01/24 17:12:38;;;;;;;21.20;10.60;;;6.30;57.60;;;4.78;61.77;103562.56;12253510;19;20021;-89
2023/01/24 17:16:40;;;;;;;18.98;9.77;;;6.30;57.60;;;4.38;62.01;103507.63;12248335;19;20086;-90
2023/01/24 17:20:42;;;;;;;17.50;9.98;;;6.30;57.70;;;4.49;61.83;103520.72;12250927;19;20029;-89
2023/01/24 17:24:44;;;;;;;22.13;13.02;;;6.30;57.70;;;4.69;61.91;103562.41;12245451;19;20019;-89
2023/01/24 17:28:46;;;;;;;18.02;10.93;;;6.30;57.60;;;4.73;61.78;103571.97;12249430;19;20019;-88
2023/01/24 17:32:48;;;;;;;18.95;11.55;;;6.50;57.70;;;4.65;61.80;103558.06;12251559;19;20039;-89
2023/01/24 17:36:52;;;;;;;23.65;12.82;;;6.30;57.60;;;4.41;61.93;103525.75;12243792;19;20379;-89
2023/01/24 17:40:53;;;;;;;23.50;11.73;;;6.60;57.70;;;4.66;61.75;103564.97;12249899;19;20015;-88
2023/01/24 17:44:56;;;;;;;20.83;10.90;;;6.30;57.60;;;4.45;61.77;103531.84;12245944;19;20514;-88
2023/01/24 17:48:58;;;;;;;24.10;11.60;;;6.30;57.70;;;4.43;61.69;103524.06;12250462;19;20491;-90
2023/01/24 17:52:59;;;;;;;25.00;12.48;;;6.40;57.70;;;4.81;62.03;103585.03;12243983;19;20014;-90
2023/01/24 17:57:01;;;;;;;20.40;10.57;;;6.30;57.70;;;4.54;61.89;103542.34;12249129;19;20078;-90
2023/01/24 18:01:03;;;;;;;22.73;11.85;;;6.50;57.80;;;4.86;62.11;103599.78;12248877;19;20014;-89
2023/01/24 18:05:06;;;;;;;20.55;10.90;;;6.40;57.70;;;4.59;61.85;103542.41;12246691;19;20045;-90
2023/01/24 18:09:08;;;;;;;19.80;11.00;;;6.40;57.70;;;4.86;61.95;103597.22;12247087;19;20010;-89
2023/01/24 18:13:09;;;;;;;19.50;11.07;;;6.40;57.50;;;4.42;61.67;103527.50;12246578;19;20374;-89
2023/01/24 18:17:11;;;;;;;17.58;9.85;;;6.40;57.50;;;4.64;61.59;103574.41;12249778;19;20022;-90
2023/01/24 18:21:25;;;;;;;19.27;10.55;;;6.30;57.40;;;4.37;61.84;103531.72;12247325;19;20368;-89
2023/01/24 18:25:27;;;;;;;20.00;9.68;;;6.30;57.30;;;4.64;61.95;103575.31;12243340;19;20504;-89
2023/01/24 18:29:32;;;;;;;20.27;9.98;;;6.60;57.60;;;4.44;61.71;103543.06;12250480;19;20042;-93
2023/01/24 18:33:34;;;;;;;20.25;10.88;;;6.30;57.50;;;4.51;61.71;103549.19;12251304;19;20069;-89